sensor_id;sensor_type;location;lat;lon;timestamp;pressure;altitude;pressure_sealevel;temperature;humidity
46876;BME280;32866;50.160;14.768;2023-06-04T00:01:55;99725.81;;;7.91;100.00
46876;BME280;32866;50.160;14.768;2023-06-04T00:04:21;99734.97;;;7.77;100.00
46876;BME280;32866;50.160;14.768;2023-06-04T00:06:49;99739.97;;;8.09;100.00
46876;BME280;32866;50.160;14.768;2023-06-04T00:09:15;99727.69;;;7.97;100.00
46876;BME280;32866;50.160;14.768;2023-06-04T00:11:41;99771.44;;;8.21;100.00
46876;BME280;32866;50.160;14.768;2023-06-04T00:14:07;99728.09;;;7.96;100.00
46876;BME280;32866;50.160;14.768;2023-06-04T00:16:33;99751.13;;;8.22;100.00
46876;BME280;32866;50.160;14.768;2023-06-04T00:19:01;99741.84;;;7.89;100.00
46876;BME280;32866;50.160;14.768;2023-06-04T00:21:28;99758.09;;;7.99;100.00
46876;BME280;32866;50.160;14.768;2023-06-04T00:23:54;99717.63;;;7.64;100.00
46876;BME280;32866;50.160;14.768;2023-06-04T00:26:20;99736.13;;;7.79;100.00
46876;BME280;32866;50.160;14.768;2023-06-04T00:28:47;99760.19;;;7.88;100.00
46876;BME280;32866;50.160;14.768;2023-06-04T00:31:13;99744.44;;;7.69;100.00
46876;BME280;32866;50.160;14.768;2023-06-04T00:33:39;99753.94;;;7.88;100.00
46876;BME280;32866;50.160;14.768;2023-06-04T00:36:05;99751.84;;;7.68;100.00
46876;BME280;32866;50.160;14.768;2023-06-04T00:38:31;99743.38;;;7.63;100.00
46876;BME280;32866;50.160;14.768;2023-06-04T00:40:57;99742.66;;;7.55;100.00
46876;BME280;32866;50.160;14.768;2023-06-04T00:43:23;99753.47;;;7.62;100.00
46876;BME280;32866;50.160;14.768;2023-06-04T00:45:52;99746.22;;;7.52;100.00
46876;BME280;32866;50.160;14.768;2023-06-04T00:48:18;99748.97;;;7.48;100.00
46876;BME280;32866;50.160;14.768;2023-06-04T00:50:45;99739.06;;;7.31;100.00
46876;BME280;32866;50.160;14.768;2023-06-04T00:53:11;99742.59;;;7.28;100.00
46876;BME280;32866;50.160;14.768;2023-06-04T00:55:37;99733.63;;;7.27;100.00
46876;BME280;32866;50.160;14.768;2023-06-04T00:58:03;99730.91;;;7.27;100.00
46876;BME280;32866;50.160;14.768;2023-06-04T01:00:32;99704.28;;;7.08;100.00
46876;BME280;32866;50.160;14.768;2023-06-04T01:03:00;99740.34;;;7.19;100.00
46876;BME280;32866;50.160;14.768;2023-06-04T01:05:40;99738.00;;;7.21;100.00
46876;BME280;32866;50.160;14.768;2023-06-04T01:08:08;99744.97;;;7.22;100.00
46876;BME280;32866;50.160;14.768;2023-06-04T01:10:36;99731.59;;;7.35;100.00
46876;BME280;32866;50.160;14.768;2023-06-04T01:13:02;99717.63;;;6.95;100.00
46876;BME280;32866;50.160;14.768;2023-06-04T01:15:28;99687.06;;;6.76;100.00
46876;BME280;32866;50.160;14.768;2023-06-04T01:17:58;99700.63;;;6.83;100.00
46876;BME280;32866;50.160;14.768;2023-06-04T01:20:36;99740.94;;;6.99;100.00
46876;BME280;32866;50.160;14.768;2023-06-04T01:23:24;99732.41;;;6.97;100.00
46876;BME280;32866;50.160;14.768;2023-06-04T01:25:54;99691.06;;;6.64;100.00
46876;BME280;32866;50.160;14.768;2023-06-04T01:28:23;99729.38;;;6.88;100.00
46876;BME280;32866;50.160;14.768;2023-06-04T01:30:51;99740.28;;;6.88;100.00
46876;BME280;32866;50.160;14.768;2023-06-04T01:33:18;99717.91;;;6.66;100.00
46876;BME280;32866;50.160;14.768;2023-06-04T01:35:45;99727.81;;;6.87;100.00
46876;BME280;32866;50.160;14.768;2023-06-04T01:38:11;99689.16;;;6.61;100.00
46876;BME280;32866;50.160;14.768;2023-06-04T01:40:37;99678.63;;;6.63;100.00
46876;BME280;32866;50.160;14.768;2023-06-04T01:43:03;99689.31;;;6.47;100.00
46876;BME280;32866;50.160;14.768;2023-06-04T01:45:29;99729.06;;;6.82;100.00
46876;BME280;32866;50.160;14.768;2023-06-04T01:47:56;99724.91;;;6.63;100.00
46876;BME280;32866;50.160;14.768;2023-06-04T01:50:22;99684.91;;;6.15;100.00
46876;BME280;32866;50.160;14.768;2023-06-04T01:52:49;99683.97;;;6.32;100.00
46876;BME280;32866;50.160;14.768;2023-06-04T01:55:16;99732.25;;;6.70;100.00
46876;BME280;32866;50.160;14.768;2023-06-04T01:57:43;99730.38;;;6.63;100.00
46876;BME280;32866;50.160;14.768;2023-06-04T02:00:10;99725.75;;;6.60;100.00
46876;BME280;32866;50.160;14.768;2023-06-04T02:02:38;99701.03;;;6.37;100.00
46876;BME280;32866;50.160;14.768;2023-06-04T02:05:05;99730.16;;;6.43;100.00
46876;BME280;32866;50.160;14.768;2023-06-04T02:07:38;99719.69;;;6.38;100.00
46876;BME280;32866;50.160;14.768;2023-06-04T02:10:08;99684.97;;;6.01;100.00
46876;BME280;32866;50.160;14.768;2023-06-04T02:12:39;99678.81;;;5.86;100.00
46876;BME280;32866;50.160;14.768;2023-06-04T02:15:07;99726.78;;;6.28;100.00
46876;BME280;32866;50.160;14.768;2023-06-04T02:17:33;99690.88;;;5.85;100.00
46876;BME280;32866;50.160;14.768;2023-06-04T02:20:03;99730.34;;;6.15;100.00
46876;BME280;32866;50.160;14.768;2023-06-04T02:22:35;99692.94;;;5.70;100.00
46876;BME280;32866;50.160;14.768;2023-06-04T02:25:01;99719.97;;;5.99;100.00
46876;BME280;32866;50.160;14.768;2023-06-04T02:27:27;99686.25;;;5.78;100.00
46876;BME280;32866;50.160;14.768;2023-06-04T02:29:53;99717.66;;;5.86;100.00
46876;BME280;32866;50.160;14.768;2023-06-04T02:32:19;99694.81;;;5.80;100.00
46876;BME280;32866;50.160;14.768;2023-06-04T02:34:45;99701.75;;;5.85;100.00
46876;BME280;32866;50.160;14.768;2023-06-04T02:37:11;99739.00;;;6.02;100.00
46876;BME280;32866;50.160;14.768;2023-06-04T02:39:37;99706.13;;;5.68;100.00
46876;BME280;32866;50.160;14.768;2023-06-04T02:42:03;99744.03;;;6.04;100.00
46876;BME280;32866;50.160;14.768;2023-06-04T02:44:30;99736.31;;;5.99;100.00
46876;BME280;32866;50.160;14.768;2023-06-04T02:46:56;99742.16;;;5.86;100.00
46876;BME280;32866;50.160;14.768;2023-06-04T02:49:22;99738.72;;;5.75;100.00
46876;BME280;32866;50.160;14.768;2023-06-04T02:51:48;99722.41;;;5.75;100.00
46876;BME280;32866;50.160;14.768;2023-06-04T02:54:14;99695.34;;;5.46;100.00
46876;BME280;32866;50.160;14.768;2023-06-04T02:56:40;99748.00;;;5.85;100.00
46876;BME280;32866;50.160;14.768;2023-06-04T02:59:06;99705.34;;;5.67;100.00
46876;BME280;32866;50.160;14.768;2023-06-04T03:01:35;99696.13;;;5.50;100.00
46876;BME280;32866;50.160;14.768;2023-06-04T03:04:01;99746.06;;;5.85;100.00
46876;BME280;32866;50.160;14.768;2023-06-04T03:06:36;99759.63;;;5.92;100.00
46876;BME280;32866;50.160;14.768;2023-06-04T03:09:05;99736.00;;;5.71;100.00
46876;BME280;32866;50.160;14.768;2023-06-04T03:11:32;99718.63;;;5.51;100.00
46876;BME280;32866;50.160;14.768;2023-06-04T03:13:58;99720.22;;;5.48;100.00
46876;BME280;32866;50.160;14.768;2023-06-04T03:16:24;99743.44;;;5.64;100.00
46876;BME280;32866;50.160;14.768;2023-06-04T03:18:50;99723.72;;;5.45;100.00
46876;BME280;32866;50.160;14.768;2023-06-04T03:21:17;99753.97;;;5.58;100.00
46876;BME280;32866;50.160;14.768;2023-06-04T03:23:43;99722.53;;;5.46;100.00
46876;BME280;32866;50.160;14.768;2023-06-04T03:26:09;99772.50;;;5.81;100.00
46876;BME280;32866;50.160;14.768;2023-06-04T03:28:38;99773.63;;;5.87;100.00
46876;BME280;32866;50.160;14.768;2023-06-04T03:31:04;99777.50;;;5.97;100.00
46876;BME280;32866;50.160;14.768;2023-06-04T03:33:30;99749.66;;;5.61;100.00
46876;BME280;32866;50.160;14.768;2023-06-04T03:35:56;99739.88;;;5.78;100.00
46876;BME280;32866;50.160;14.768;2023-06-04T03:38:25;99767.72;;;6.03;100.00
46876;BME280;32866;50.160;14.768;2023-06-04T03:40:52;99736.28;;;5.91;100.00
46876;BME280;32866;50.160;14.768;2023-06-04T03:43:21;99782.84;;;6.15;100.00
46876;BME280;32866;50.160;14.768;2023-06-04T03:45:47;99741.81;;;5.81;100.00
46876;BME280;32866;50.160;14.768;2023-06-04T03:48:13;99729.38;;;5.80;100.00
46876;BME280;32866;50.160;14.768;2023-06-04T03:50:39;99735.22;;;5.82;100.00
46876;BME280;32866;50.160;14.768;2023-06-04T03:53:05;99745.63;;;5.98;100.00
46876;BME280;32866;50.160;14.768;2023-06-04T03:55:31;99785.13;;;6.24;100.00
46876;BME280;32866;50.160;14.768;2023-06-04T03:57:58;99786.28;;;6.23;100.00
46876;BME280;32866;50.160;14.768;2023-06-04T04:00:24;99778.91;;;6.27;100.00
46876;BME280;32866;50.160;14.768;2023-06-04T04:02:50;99766.03;;;6.27;100.00
46876;BME280;32866;50.160;14.768;2023-06-04T04:05:16;99772.19;;;6.39;100.00
46876;BME280;32866;50.160;14.768;2023-06-04T04:07:43;99772.28;;;6.77;100.00
46876;BME280;32866;50.160;14.768;2023-06-04T04:10:09;99790.00;;;6.99;100.00
46876;BME280;32866;50.160;14.768;2023-06-04T04:12:35;99760.47;;;6.94;100.00
46876;BME280;32866;50.160;14.768;2023-06-04T04:15:01;99786.63;;;7.26;100.00
46876;BME280;32866;50.160;14.768;2023-06-04T04:17:27;99738.50;;;7.09;100.00
46876;BME280;32866;50.160;14.768;2023-06-04T04:19:53;99764.69;;;7.37;100.00
46876;BME280;32866;50.160;14.768;2023-06-04T04:22:20;99790.75;;;7.72;100.00
46876;BME280;32866;50.160;14.768;2023-06-04T04:24:46;99794.59;;;7.78;100.00
46876;BME280;32866;50.160;14.768;2023-06-04T04:27:12;99789.88;;;7.83;100.00
46876;BME280;32866;50.160;14.768;2023-06-04T04:29:39;99796.81;;;7.87;100.00
46876;BME280;32866;50.160;14.768;2023-06-04T04:32:05;99794.31;;;8.00;100.00
46876;BME280;32866;50.160;14.768;2023-06-04T04:34:52;99793.69;;;8.16;100.00
46876;BME280;32866;50.160;14.768;2023-06-04T04:37:19;99763.03;;;8.08;100.00
46876;BME280;32866;50.160;14.768;2023-06-04T04:39:47;99755.25;;;8.07;100.00
46876;BME280;32866;50.160;14.768;2023-06-04T04:42:15;99806.22;;;8.41;100.00
46876;BME280;32866;50.160;14.768;2023-06-04T04:44:41;99756.22;;;8.20;100.00
46876;BME280;32866;50.160;14.768;2023-06-04T04:47:07;99777.31;;;8.47;100.00
46876;BME280;32866;50.160;14.768;2023-06-04T04:49:33;99760.69;;;8.34;100.00
46876;BME280;32866;50.160;14.768;2023-06-04T04:51:59;99800.78;;;8.68;100.00
46876;BME280;32866;50.160;14.768;2023-06-04T04:54:25;99805.25;;;8.82;100.00
46876;BME280;32866;50.160;14.768;2023-06-04T04:56:51;99768.78;;;8.68;100.00
46876;BME280;32866;50.160;14.768;2023-06-04T04:59:17;99768.91;;;8.85;100.00
46876;BME280;32866;50.160;14.768;2023-06-04T05:01:43;99761.34;;;8.93;100.00
46876;BME280;32866;50.160;14.768;2023-06-04T05:04:09;99803.47;;;9.39;100.00
46876;BME280;32866;50.160;14.768;2023-06-04T05:06:36;99805.31;;;9.65;100.00
46876;BME280;32866;50.160;14.768;2023-06-04T05:09:02;99809.06;;;10.28;100.00
46876;BME280;32866;50.160;14.768;2023-06-04T05:11:28;99789.97;;;10.45;100.00
46876;BME280;32866;50.160;14.768;2023-06-04T05:13:54;99768.88;;;10.42;100.00
46876;BME280;32866;50.160;14.768;2023-06-04T05:16:20;99819.22;;;11.13;100.00
46876;BME280;32866;50.160;14.768;2023-06-04T05:18:48;99793.00;;;11.12;100.00
46876;BME280;32866;50.160;14.768;2023-06-04T05:21:17;99812.16;;;11.29;100.00
46876;BME280;32866;50.160;14.768;2023-06-04T05:23:43;99801.84;;;11.62;100.00
46876;BME280;32866;50.160;14.768;2023-06-04T05:26:13;99815.06;;;12.48;100.00
46876;BME280;32866;50.160;14.768;2023-06-04T05:28:39;99827.69;;;12.71;100.00
46876;BME280;32866;50.160;14.768;2023-06-04T05:31:09;99788.63;;;12.89;100.00
46876;BME280;32866;50.160;14.768;2023-06-04T05:33:35;99827.84;;;13.03;100.00
46876;BME280;32866;50.160;14.768;2023-06-04T05:36:01;99832.41;;;12.71;100.00
46876;BME280;32866;50.160;14.768;2023-06-04T05:38:27;99779.47;;;12.32;100.00
46876;BME280;32866;50.160;14.768;2023-06-04T05:40:53;99842.94;;;12.85;98.42
46876;BME280;32866;50.160;14.768;2023-06-04T05:43:20;99795.25;;;12.66;99.35
46876;BME280;32866;50.160;14.768;2023-06-04T05:45:46;99807.63;;;13.31;96.46
46876;BME280;32866;50.160;14.768;2023-06-04T05:48:12;99834.28;;;13.79;93.66
46876;BME280;32866;50.160;14.768;2023-06-04T05:50:38;99823.53;;;13.49;94.98
46876;BME280;32866;50.160;14.768;2023-06-04T05:53:04;99808.88;;;13.17;100.00
46876;BME280;32866;50.160;14.768;2023-06-04T05:55:30;99798.69;;;13.40;91.72
46876;BME280;32866;50.160;14.768;2023-06-04T05:57:56;99843.28;;;13.70;94.10
46876;BME280;32866;50.160;14.768;2023-06-04T06:00:22;99841.91;;;13.97;93.63
46876;BME280;32866;50.160;14.768;2023-06-04T06:02:51;99830.97;;;14.46;88.56
46876;BME280;32866;50.160;14.768;2023-06-04T06:05:18;99832.09;;;15.17;87.46
46876;BME280;32866;50.160;14.768;2023-06-04T06:07:45;99841.22;;;16.16;66.00
46876;BME280;32866;50.160;14.768;2023-06-04T06:10:11;99837.66;;;16.25;67.20
46876;BME280;32866;50.160;14.768;2023-06-04T06:12:38;99830.00;;;16.53;65.40
46876;BME280;32866;50.160;14.768;2023-06-04T06:15:04;99840.84;;;16.32;64.70
46876;BME280;32866;50.160;14.768;2023-06-04T06:17:31;99825.38;;;16.17;65.70
46876;BME280;32866;50.160;14.768;2023-06-04T06:19:58;99809.19;;;15.82;65.61
46876;BME280;32866;50.160;14.768;2023-06-04T06:22:25;99838.59;;;16.55;65.33
46876;BME280;32866;50.160;14.768;2023-06-04T06:24:51;99849.47;;;16.25;63.99
46876;BME280;32866;50.160;14.768;2023-06-04T06:27:17;99848.53;;;16.28;63.16
46876;BME280;32866;50.160;14.768;2023-06-04T06:29:43;99840.88;;;16.23;65.11
46876;BME280;32866;50.160;14.768;2023-06-04T06:32:12;99845.44;;;16.69;66.72
46876;BME280;32866;50.160;14.768;2023-06-04T06:34:38;99846.69;;;17.01;61.38
46876;BME280;32866;50.160;14.768;2023-06-04T06:37:05;99845.63;;;17.23;59.92
46876;BME280;32866;50.160;14.768;2023-06-04T06:39:31;99817.81;;;16.93;58.61
46876;BME280;32866;50.160;14.768;2023-06-04T06:41:58;99839.13;;;16.78;63.15
46876;BME280;32866;50.160;14.768;2023-06-04T06:44:23;99848.59;;;17.34;63.08
46876;BME280;32866;50.160;14.768;2023-06-04T06:46:50;99815.34;;;17.19;61.13
46876;BME280;32866;50.160;14.768;2023-06-04T06:49:16;99857.69;;;17.35;60.15
46876;BME280;32866;50.160;14.768;2023-06-04T06:51:41;99847.44;;;17.26;59.23
46876;BME280;32866;50.160;14.768;2023-06-04T06:54:10;99846.56;;;16.96;58.89
46876;BME280;32866;50.160;14.768;2023-06-04T06:56:36;99845.16;;;17.00;64.36
46876;BME280;32866;50.160;14.768;2023-06-04T06:59:02;99854.47;;;17.66;63.90
46876;BME280;32866;50.160;14.768;2023-06-04T07:01:28;99851.22;;;17.68;61.92
46876;BME280;32866;50.160;14.768;2023-06-04T07:03:54;99838.63;;;17.52;60.94
46876;BME280;32866;50.160;14.768;2023-06-04T07:06:20;99855.69;;;18.19;57.18
46876;BME280;32866;50.160;14.768;2023-06-04T07:08:46;99818.75;;;18.28;57.27
46876;BME280;32866;50.160;14.768;2023-06-04T07:11:13;99823.16;;;19.05;53.75
46876;BME280;32866;50.160;14.768;2023-06-04T07:13:39;99848.19;;;19.11;57.32
46876;BME280;32866;50.160;14.768;2023-06-04T07:16:05;99853.13;;;20.53;48.64
46876;BME280;32866;50.160;14.768;2023-06-04T07:18:32;99835.69;;;21.84;44.52
46876;BME280;32866;50.160;14.768;2023-06-04T07:20:58;99861.41;;;24.09;39.45
46876;BME280;32866;50.160;14.768;2023-06-04T07:23:25;99859.91;;;24.38;37.08
46876;BME280;32866;50.160;14.768;2023-06-04T07:25:51;99864.88;;;23.38;38.16
46876;BME280;32866;50.160;14.768;2023-06-04T07:28:17;99845.75;;;23.53;37.38
46876;BME280;32866;50.160;14.768;2023-06-04T07:30:45;99857.13;;;24.33;38.02
46876;BME280;32866;50.160;14.768;2023-06-04T07:33:11;99826.94;;;24.25;34.72
46876;BME280;32866;50.160;14.768;2023-06-04T07:35:37;99843.97;;;25.02;34.49
46876;BME280;32866;50.160;14.768;2023-06-04T07:38:03;99828.00;;;24.47;35.82
46876;BME280;32866;50.160;14.768;2023-06-04T07:40:29;99826.81;;;25.49;33.00
46876;BME280;32866;50.160;14.768;2023-06-04T07:42:56;99821.63;;;24.96;34.53
46876;BME280;32866;50.160;14.768;2023-06-04T07:45:22;99831.44;;;25.46;32.54
46876;BME280;32866;50.160;14.768;2023-06-04T07:47:48;99858.97;;;25.48;31.78
46876;BME280;32866;50.160;14.768;2023-06-04T07:50:14;99854.06;;;25.10;32.59
46876;BME280;32866;50.160;14.768;2023-06-04T07:52:43;99848.78;;;24.57;34.06
46876;BME280;32866;50.160;14.768;2023-06-04T07:55:09;99824.75;;;24.68;34.47
46876;BME280;32866;50.160;14.768;2023-06-04T07:57:35;99831.03;;;24.49;36.00
46876;BME280;32866;50.160;14.768;2023-06-04T08:00:02;99819.53;;;25.02;34.88
46876;BME280;32866;50.160;14.768;2023-06-04T08:02:30;99816.66;;;26.83;30.23
46876;BME280;32866;50.160;14.768;2023-06-04T08:04:56;99839.38;;;26.72;29.45
46876;BME280;32866;50.160;14.768;2023-06-04T08:07:22;99847.97;;;26.47;33.98
46876;BME280;32866;50.160;14.768;2023-06-04T08:09:48;99824.97;;;26.62;31.49
46876;BME280;32866;50.160;14.768;2023-06-04T08:12:15;99852.88;;;25.63;32.45
46876;BME280;32866;50.160;14.768;2023-06-04T08:14:42;99843.91;;;27.01;30.60
46876;BME280;32866;50.160;14.768;2023-06-04T08:17:08;99823.69;;;26.76;30.51
46876;BME280;32866;50.160;14.768;2023-06-04T08:19:34;99841.31;;;26.77;31.50
46876;BME280;32866;50.160;14.768;2023-06-04T08:22:00;99811.88;;;26.51;31.55
46876;BME280;32866;50.160;14.768;2023-06-04T08:24:26;99816.25;;;26.79;29.87
46876;BME280;32866;50.160;14.768;2023-06-04T08:26:52;99816.41;;;27.21;29.07
46876;BME280;32866;50.160;14.768;2023-06-04T08:29:18;99820.03;;;26.81;30.32
46876;BME280;32866;50.160;14.768;2023-06-04T08:34:13;99839.94;;;28.21;27.24
46876;BME280;32866;50.160;14.768;2023-06-04T08:36:40;99840.34;;;28.75;26.79
46876;BME280;32866;50.160;14.768;2023-06-04T08:39:08;99819.09;;;27.96;28.56
46876;BME280;32866;50.160;14.768;2023-06-04T08:41:45;99838.69;;;27.88;28.54
46876;BME280;32866;50.160;14.768;2023-06-04T08:44:15;99806.56;;;27.83;28.54
46876;BME280;32866;50.160;14.768;2023-06-04T08:46:43;99822.50;;;28.80;27.59
46876;BME280;32866;50.160;14.768;2023-06-04T08:49:11;99825.19;;;28.86;26.58
46876;BME280;32866;50.160;14.768;2023-06-04T08:51:38;99837.66;;;28.41;26.38
46876;BME280;32866;50.160;14.768;2023-06-04T08:54:05;99842.44;;;28.04;28.73
46876;BME280;32866;50.160;14.768;2023-06-04T08:56:32;99831.88;;;28.75;26.15
46876;BME280;32866;50.160;14.768;2023-06-04T08:59:06;99843.63;;;29.23;24.93
46876;BME280;32866;50.160;14.768;2023-06-04T09:01:34;99845.44;;;28.27;25.50
46876;BME280;32866;50.160;14.768;2023-06-04T09:04:06;99839.38;;;29.09;26.05
46876;BME280;32866;50.160;14.768;2023-06-04T09:06:33;99819.19;;;29.26;26.13
46876;BME280;32866;50.160;14.768;2023-06-04T09:09:01;99840.34;;;29.64;24.39
46876;BME280;32866;50.160;14.768;2023-06-04T09:11:35;99837.72;;;29.66;24.38
46876;BME280;32866;50.160;14.768;2023-06-04T09:14:04;99845.84;;;29.17;26.16
46876;BME280;32866;50.160;14.768;2023-06-04T09:19:10;99820.09;;;28.27;26.23
46876;BME280;32866;50.160;14.768;2023-06-04T09:21:54;99826.09;;;29.17;25.20
46876;BME280;32866;50.160;14.768;2023-06-04T09:24:22;99828.94;;;29.25;24.83
46876;BME280;32866;50.160;14.768;2023-06-04T09:26:48;99838.09;;;29.70;23.50
46876;BME280;32866;50.160;14.768;2023-06-04T09:29:15;99838.31;;;29.79;23.95
46876;BME280;32866;50.160;14.768;2023-06-04T09:31:44;99830.16;;;29.60;24.60
46876;BME280;32866;50.160;14.768;2023-06-04T09:34:10;99824.97;;;28.26;24.76
46876;BME280;32866;50.160;14.768;2023-06-04T09:36:36;99805.50;;;28.36;25.19
46876;BME280;32866;50.160;14.768;2023-06-04T09:39:03;99815.13;;;29.58;27.11
46876;BME280;32866;50.160;14.768;2023-06-04T09:41:30;99809.31;;;29.12;24.23
46876;BME280;32866;50.160;14.768;2023-06-04T09:44:01;99834.22;;;27.50;25.01
46876;BME280;32866;50.160;14.768;2023-06-04T09:46:29;99831.78;;;26.53;25.57
46876;BME280;32866;50.160;14.768;2023-06-04T09:49:03;99824.63;;;26.39;25.59
46876;BME280;32866;50.160;14.768;2023-06-04T09:51:30;99826.00;;;27.39;27.49
46876;BME280;32866;50.160;14.768;2023-06-04T09:53:57;99820.69;;;29.27;24.84
46876;BME280;32866;50.160;14.768;2023-06-04T09:56:24;99814.22;;;29.11;27.74
46876;BME280;32866;50.160;14.768;2023-06-04T09:58:58;99815.66;;;28.97;25.69
46876;BME280;32866;50.160;14.768;2023-06-04T10:01:26;99811.63;;;29.21;25.03
46876;BME280;32866;50.160;14.768;2023-06-04T10:03:54;99820.16;;;28.35;26.37
46876;BME280;32866;50.160;14.768;2023-06-04T10:06:22;99815.78;;;29.28;25.78
46876;BME280;32866;50.160;14.768;2023-06-04T10:08:49;99809.81;;;28.95;27.55
46876;BME280;32866;50.160;14.768;2023-06-04T10:11:30;99811.59;;;29.81;24.69
46876;BME280;32866;50.160;14.768;2023-06-04T10:14:03;99822.22;;;28.13;27.41
46876;BME280;32866;50.160;14.768;2023-06-04T10:16:32;99790.22;;;29.41;26.38
46876;BME280;32866;50.160;14.768;2023-06-04T10:18:59;99810.25;;;28.70;26.02
46876;BME280;32866;50.160;14.768;2023-06-04T10:21:26;99789.06;;;27.98;25.11
46876;BME280;32866;50.160;14.768;2023-06-04T10:23:53;99776.06;;;28.74;24.48
46876;BME280;32866;50.160;14.768;2023-06-04T10:26:19;99789.53;;;30.48;23.91
46876;BME280;32866;50.160;14.768;2023-06-04T10:28:45;99793.09;;;30.57;22.96
46876;BME280;32866;50.160;14.768;2023-06-04T10:31:11;99801.56;;;30.64;22.73
46876;BME280;32866;50.160;14.768;2023-06-04T10:33:38;99801.59;;;30.33;24.18
46876;BME280;32866;50.160;14.768;2023-06-04T10:36:21;99802.38;;;29.80;23.68
46876;BME280;32866;50.160;14.768;2023-06-04T10:38:49;99762.22;;;28.55;25.27
46876;BME280;32866;50.160;14.768;2023-06-04T10:41:16;99795.25;;;28.18;25.53
46876;BME280;32866;50.160;14.768;2023-06-04T10:43:44;99801.91;;;27.30;26.99
46876;BME280;32866;50.160;14.768;2023-06-04T10:46:14;99774.84;;;26.79;25.82
46876;BME280;32866;50.160;14.768;2023-06-04T10:48:51;99785.66;;;26.62;29.56
46876;BME280;32866;50.160;14.768;2023-06-04T10:51:29;99790.25;;;26.99;26.63
46876;BME280;32866;50.160;14.768;2023-06-04T10:53:58;99800.59;;;27.31;27.24
46876;BME280;32866;50.160;14.768;2023-06-04T10:56:30;99758.22;;;26.28;25.44
46876;BME280;32866;50.160;14.768;2023-06-04T10:58:59;99787.91;;;26.90;26.51
46876;BME280;32866;50.160;14.768;2023-06-04T11:01:26;99792.25;;;26.64;25.15
46876;BME280;32866;50.160;14.768;2023-06-04T11:03:52;99783.56;;;26.22;25.20
46876;BME280;32866;50.160;14.768;2023-06-04T11:06:38;99761.75;;;26.55;25.30
46876;BME280;32866;50.160;14.768;2023-06-04T11:09:23;99765.19;;;27.01;25.87
46876;BME280;32866;50.160;14.768;2023-06-04T11:12:08;99756.44;;;27.39;24.05
46876;BME280;32866;50.160;14.768;2023-06-04T11:14:56;99783.34;;;27.69;25.54
46876;BME280;32866;50.160;14.768;2023-06-04T11:17:55;99784.75;;;27.42;24.98
46876;BME280;32866;50.160;14.768;2023-06-04T11:20:46;99785.75;;;26.56;23.63
46876;BME280;32866;50.160;14.768;2023-06-04T11:23:33;99786.19;;;27.35;24.63
46876;BME280;32866;50.160;14.768;2023-06-04T11:26:17;99767.66;;;27.95;23.29
46876;BME280;32866;50.160;14.768;2023-06-04T11:29:09;99783.56;;;28.13;23.14
46876;BME280;32866;50.160;14.768;2023-06-04T11:31:55;99783.16;;;28.09;22.92
46876;BME280;32866;50.160;14.768;2023-06-04T11:34:40;99759.53;;;28.12;23.47
46876;BME280;32866;50.160;14.768;2023-06-04T11:37:24;99781.63;;;28.08;21.74
46876;BME280;32866;50.160;14.768;2023-06-04T11:40:16;99781.41;;;27.43;22.90
46876;BME280;32866;50.160;14.768;2023-06-04T11:43:02;99775.81;;;26.82;21.59
46876;BME280;32866;50.160;14.768;2023-06-04T11:45:46;99740.25;;;26.84;22.31
46876;BME280;32866;50.160;14.768;2023-06-04T11:48:31;99771.03;;;27.38;22.09
46876;BME280;32866;50.160;14.768;2023-06-04T11:51:15;99771.63;;;27.10;22.77
46876;BME280;32866;50.160;14.768;2023-06-04T11:54:00;99756.47;;;27.61;22.34
46876;BME280;32866;50.160;14.768;2023-06-04T11:56:48;99768.19;;;28.15;21.73
46876;BME280;32866;50.160;14.768;2023-06-04T11:59:34;99744.59;;;27.75;20.75
46876;BME280;32866;50.160;14.768;2023-06-04T12:02:18;99739.81;;;28.12;20.29
46876;BME280;32866;50.160;14.768;2023-06-04T12:05:16;99744.22;;;27.37;22.71
46876;BME280;32866;50.160;14.768;2023-06-04T12:08:05;99762.44;;;27.57;20.17
46876;BME280;32866;50.160;14.768;2023-06-04T12:10:51;99737.31;;;27.59;21.65
46876;BME280;32866;50.160;14.768;2023-06-04T12:13:38;99759.03;;;28.22;20.68
46876;BME280;32866;50.160;14.768;2023-06-04T12:16:22;99737.50;;;28.61;20.30
46876;BME280;32866;50.160;14.768;2023-06-04T12:19:12;99760.50;;;28.80;20.61
46876;BME280;32866;50.160;14.768;2023-06-04T12:22:07;99750.59;;;29.77;19.23
46876;BME280;32866;50.160;14.768;2023-06-04T12:24:56;99754.28;;;29.18;18.68
46876;BME280;32866;50.160;14.768;2023-06-04T12:27:47;99722.50;;;29.26;18.81
46876;BME280;32866;50.160;14.768;2023-06-04T12:30:40;99757.00;;;29.93;18.49
46876;BME280;32866;50.160;14.768;2023-06-04T12:33:24;99763.03;;;30.92;19.07
46876;BME280;32866;50.160;14.768;2023-06-04T12:36:09;99733.72;;;30.64;19.31
46876;BME280;32866;50.160;14.768;2023-06-04T12:38:58;99735.50;;;30.37;19.66
46876;BME280;32866;50.160;14.768;2023-06-04T12:41:45;99750.03;;;30.81;19.32
46876;BME280;32866;50.160;14.768;2023-06-04T12:44:30;99738.63;;;30.64;21.95
46876;BME280;32866;50.160;14.768;2023-06-04T12:47:15;99721.19;;;30.83;21.39
46876;BME280;32866;50.160;14.768;2023-06-04T12:50:01;99734.69;;;31.07;20.38
46876;BME280;32866;50.160;14.768;2023-06-04T12:52:45;99718.63;;;31.35;20.07
46876;BME280;32866;50.160;14.768;2023-06-04T12:55:30;99719.59;;;31.05;20.00
46876;BME280;32866;50.160;14.768;2023-06-04T12:58:14;99728.75;;;31.21;19.99
46876;BME280;32866;50.160;14.768;2023-06-04T13:00:59;99716.72;;;29.77;22.48
46876;BME280;32866;50.160;14.768;2023-06-04T13:03:43;99723.91;;;30.65;21.14
46876;BME280;32866;50.160;14.768;2023-06-04T13:06:28;99734.38;;;30.96;20.95
46876;BME280;32866;50.160;14.768;2023-06-04T13:09:13;99727.56;;;31.57;19.86
46876;BME280;32866;50.160;14.768;2023-06-04T13:11:58;99708.19;;;30.24;19.93